Fritch, TX

1:31 AM CDT on October 25, 2014 (GMT -0500)
Moore County | Change Station
CLOSE
Current Station
Airport
Location: Dumas,
Elevation: 3704 ft
Nearby Weather Stations

Elev 3704 ft 35.86 °N, 102.01 °W | Updated 16 minutes ago

Clear
Clear
54 °F
Feels Like 54 °F
N
8
Wind Variable Wind from SSW
Gusts 8 mph

Today
High -- | Low -- °F
--% Chance of Precip.
Yesterday
High -- | Low -- °F
Precip. -- in
8:01 AM 6:58 PM
New Moon, 2% visible
Pressure 30.14 in
Visibility 10.0 miles
Clouds
Dew Point 40 °F
Humidity 60%
Rainfall 0.00 in
Snow Depth Not available.
UV Not available.
Pollen 6.30 out of 12
Air Quality Not available.
Flu Activity Local Activity
METAR KDUX 250615Z AUTO 21007KT 10SM 12/05 A3014 RMK AO2 T01210045

More Conditions Fewer Conditions

Pressure 30.14 in
Visibility 10.0 miles
Clouds
Dew Point 40 °F
Humidity 60%
Rainfall 0.00 in
Snow Depth Not available.
UV Not available.
Pollen 6.30 out of 12
Air Quality Not available.
Flu Activity Local Activity
METAR KDUX 250615Z AUTO 21007KT 10SM 12/05 A3014 RMK AO2 T01210045

More Conditions Fewer Conditions

10-Day Weather Forecast

Almanac

Astronomy

Oct. 25, 2014 Rise Set
Actual Time 8:01 AM CDT 6:58 PM CDT
Civil Twilight 7:35 AM CDT 7:24 PM CDT
Nautical Twilight 7:05 AM CDT 7:54 PM CDT
Astronomical Twilight 6:36 AM CDT 8:24 PM CDT
Moon 9:40 AM CDT 8:26 PM CDT
Length of Visible Light 11h 48m
Length of Day
10h 56m
Tomorrow will be 2m 3s shorter.
New Moon, 2% of the Moon is Illuminated
Today
New Moon
Oct 30
First Quarter
Nov 6
Full
Nov 14
Last Quarter
Nov 22
New

Today's Extremes

State Highs State Lows

Community

WunderPhotos

Upload Photos

1,764,785 photos uploaded!

Nearby

Snow Depth

Station Depth Elevation
No new snow has been reported.

Earthquake Activity

City Distance Mag. Time & Date
No recent earthquake activity has been reported nearby.
Minimum magnitude displayed is 2.5.

Coastal Water Temperatures

Place Temperature
No Stations Reporting

Nearby Weather Stations